Time;durP1;ratioP1;P1;durP2;ratioP2;P2;SDS_P1;SDS_P2;PMS_P1;PMS_P2;Temp;Humidity;BMP_temperature;BMP_pressure;BME280_temperature;BME280_humidity;BME280_pressure;Samples;Min_cycle;Max_cycle;Signal;HPM_P1;HPM_P2
2022/08/10 00:01:07;;;;;;;3.33;0.50;;;;;;;;;;4986325;28;20502;-69
2022/08/10 00:03:38;;;;;;;1.85;0.50;;;;;;;;;;4942073;28;20046;-68
2022/08/10 00:06:08;;;;;;;1.52;0.60;;;;;;;;;;4989859;28;20113;-69
2022/08/10 00:08:39;;;;;;;2.75;1.42;;;;;;;;;;4989826;28;20046;-68
2022/08/10 00:11:10;;;;;;;2.10;1.25;;;;;;;;;;4990003;28;20054;-69
2022/08/10 00:13:45;;;;;;;1.60;0.70;;;;;;;;;;4989641;28;20085;-69
2022/08/10 00:16:15;;;;;;;1.60;1.15;;;;;;;;;;4989882;28;20511;-68
2022/08/10 00:18:45;;;;;;;1.60;1.00;;;;;;;;;;4957605;28;20612;-69
2022/08/10 00:21:16;;;;;;;2.10;0.80;;;;;;;;;;4989829;28;20081;-69
2022/08/10 00:23:47;;;;;;;1.42;0.60;;;;;;;;;;4973131;28;20051;-70
2022/08/10 00:26:17;;;;;;;1.60;1.00;;;;;;;;;;4989827;28;20054;-69
2022/08/10 00:28:49;;;;;;;1.58;0.80;;;;;;;;;;4989650;28;20058;-69
2022/08/10 00:31:20;;;;;;;0.93;0.50;;;;;;;;;;4989510;28;20073;-69
2022/08/10 00:33:51;;;;;;;0.80;0.50;;;;;;;;;;4989583;28;20058;-69
2022/08/10 00:36:21;;;;;;;3.08;1.00;;;;;;;;;;4989357;28;20051;-69
2022/08/10 00:38:51;;;;;;;1.13;0.50;;;;;;;;;;4989722;28;20046;-68
2022/08/10 00:41:22;;;;;;;0.75;0.47;;;;;;;;;;5008825;28;20042;-69
2022/08/10 00:43:52;;;;;;;0.90;0.32;;;;;;;;;;4989335;28;20062;-69
2022/08/10 00:46:23;;;;;;;1.40;0.60;;;;;;;;;;4989348;28;20570;-70
2022/08/10 00:48:53;;;;;;;0.80;0.35;;;;;;;;;;4989361;28;20058;-69
2022/08/10 00:51:28;;;;;;;1.33;0.70;;;;;;;;;;4989311;28;20062;-69
2022/08/10 00:54:17;;;;;;;1.58;1.48;;;;;;;;;;4989285;28;20050;-68
2022/08/10 00:56:53;;;;;;;0.90;0.60;;;;;;;;;;4956881;28;20602;-69
2022/08/10 00:59:43;;;;;;;1.60;0.77;;;;;;;;;;4989253;28;20079;-68
2022/08/10 01:02:30;;;;;;;0.95;0.60;;;;;;;;;;5007433;28;20053;-69
2022/08/10 01:05:10;;;;;;;0.45;0.40;;;;;;;;;;5008298;28;20065;-69
2022/08/10 01:08:16;;;;;;;0.57;0.30;;;;;;;;;;4959993;28;20057;-68
2022/08/10 01:11:14;;;;;;;1.05;0.80;;;;;;;;;;4949923;29;20062;-69
2022/08/10 01:14:13;;;;;;;0.52;0.30;;;;;;;;;;4930840;29;20055;-69
2022/08/10 01:17:13;;;;;;;0.43;0.22;;;;;;;;;;4930838;29;20064;-69
2022/08/10 01:19:43;;;;;;;0.95;0.30;;;;;;;;;;4901026;29;20048;-68
2022/08/10 01:22:31;;;;;;;0.75;0.30;;;;;;;;;;4877203;29;20056;-69
2022/08/10 01:25:07;;;;;;;1.40;0.60;;;;;;;;;;4896095;29;20134;-69
2022/08/10 01:27:54;;;;;;;2.35;0.38;;;;;;;;;;4911514;29;20048;-71
2022/08/10 01:30:29;;;;;;;2.38;0.40;;;;;;;;;;4911561;29;20044;-69
2022/08/10 01:33:42;;;;;;;0.55;0.40;;;;;;;;;;4912033;29;20068;-69
2022/08/10 01:36:40;;;;;;;0.22;0.22;;;;;;;;;;4837216;29;20400;-70
2022/08/10 01:39:21;;;;;;;0.70;0.20;;;;;;;;;;4837495;29;20058;-68
2022/08/10 01:41:59;;;;;;;1.52;0.30;;;;;;;;;;4823167;29;20519;-71
2022/08/10 01:44:34;;;;;;;0.93;0.60;;;;;;;;;;4822802;29;20073;-68
2022/08/10 01:50:09;;;;;;;0.63;0.47;;;;;;;;;;4855800;29;20058;-71
2022/08/10 01:52:43;;;;;;;1.33;0.60;;;;;;;;;;4840091;29;20061;-73
2022/08/10 01:55:16;;;;;;;0.43;0.20;;;;;;;;;;4855435;29;20053;-70
2022/08/10 01:57:47;;;;;;;1.67;0.77;;;;;;;;;;4861716;29;20053;-71
2022/08/10 02:00:19;;;;;;;1.23;0.52;;;;;;;;;;4859005;29;20067;-71
2022/08/10 02:02:52;;;;;;;0.38;0.20;;;;;;;;;;4892746;29;20056;-71
2022/08/10 02:05:23;;;;;;;1.08;0.90;;;;;;;;;;4892243;29;20073;-72
2022/08/10 02:07:56;;;;;;;0.50;0.32;;;;;;;;;;4833405;29;20049;-72
2022/08/10 02:10:29;;;;;;;1.70;1.35;;;;;;;;;;4836984;29;20065;-69
2022/08/10 02:13:01;;;;;;;1.35;0.70;;;;;;;;;;4874501;29;20068;-69
2022/08/10 02:15:33;;;;;;;1.75;0.93;;;;;;;;;;4911489;29;20064;-68
2022/08/10 02:18:06;;;;;;;1.77;0.50;;;;;;;;;;4896584;29;20536;-68
2022/08/10 02:20:40;;;;;;;;;;;;;;;;;;4913466;29;20067;-70
2022/08/10 02:23:23;;;;;;;1.25;0.40;;;;;;;;;;4915189;29;19930;-70
2022/08/10 02:25:56;;;;;;;1.00;0.50;;;;;;;;;;4899554;29;20060;-70
2022/08/10 02:28:29;;;;;;;1.23;0.60;;;;;;;;;;4915048;29;20068;-69
2022/08/10 02:31:14;;;;;;;1.33;0.60;;;;;;;;;;4915025;29;20443;-67
2022/08/10 02:33:51;;;;;;;0.73;0.32;;;;;;;;;;4931837;29;20067;-68
2022/08/10 02:36:31;;;;;;;1.90;0.73;;;;;;;;;;4919396;29;20055;-69
2022/08/10 02:39:04;;;;;;;0.70;0.30;;;;;;;;;;4933638;29;20055;-68
2022/08/10 02:42:08;;;;;;;0.52;0.30;;;;;;;;;;4936482;29;20067;-68
2022/08/10 02:45:04;;;;;;;0.85;0.85;;;;;;;;;;4924441;29;20062;-68
2022/08/10 02:48:00;;;;;;;1.25;0.60;;;;;;;;;;4964032;28;20054;-68
2022/08/10 02:50:42;;;;;;;0.47;0.20;;;;;;;;;;4955792;28;20549;-68
2022/08/10 02:53:41;;;;;;;0.85;0.40;;;;;;;;;;4971909;28;20454;-69
2022/08/10 02:57:09;;;;;;;0.60;0.38;;;;;;;;;;4920583;29;20082;-68
2022/08/10 02:59:49;;;;;;;1.05;0.30;;;;;;;;;;4917999;29;21189;-69
2022/08/10 03:02:50;;;;;;;0.73;0.30;;;;;;;;;;4914140;29;20059;-70
2022/08/10 03:05:22;;;;;;;0.88;0.38;;;;;;;;;;4864056;29;20068;-70
2022/08/10 03:08:00;;;;;;;0.38;0.10;;;;;;;;;;4879521;29;20056;-71
2022/08/10 03:10:35;;;;;;;0.55;0.20;;;;;;;;;;4891137;29;20064;-70
2022/08/10 03:13:23;;;;;;;0.30;0.15;;;;;;;;;;5170534;27;19911;-71
2022/08/10 03:15:55;;;;;;;0.30;0.30;;;;;;;;;;5105934;28;20474;-71
2022/08/10 03:18:27;;;;;;;0.45;0.13;;;;;;;;;;5071910;28;20048;-72
2022/08/10 03:20:59;;;;;;;0.28;0.17;;;;;;;;;;5106213;28;20052;-67
2022/08/10 03:23:30;;;;;;;0.40;0.10;;;;;;;;;;5089397;28;20048;-70
2022/08/10 03:26:01;;;;;;;0.35;0.10;;;;;;;;;;5085332;28;20056;-69
2022/08/10 03:28:34;;;;;;;0.25;0.20;;;;;;;;;;5085333;28;20055;-69
2022/08/10 03:31:04;;;;;;;;;;;;;;;;;;5037491;28;20056;-68
2022/08/10 03:33:37;;;;;;;0.75;0.40;;;;;;;;;;5085247;28;19920;-68
2022/08/10 03:36:09;;;;;;;0.10;0.10;;;;;;;;;;5085496;28;20056;-67
2022/08/10 03:38:59;;;;;;;0.15;0.10;;;;;;;;;;5085617;28;20531;-67
2022/08/10 03:41:40;;;;;;;0.30;0.22;;;;;;;;;;5068551;28;20083;-68
2022/08/10 03:44:24;;;;;;;;;;;;;;;;;;5025425;28;20054;-68
2022/08/10 03:46:58;;;;;;;1.15;0.20;;;;;;;;;;4985483;28;20366;-67
2022/08/10 03:49:30;;;;;;;0.40;0.40;;;;;;;;;;4954228;28;20065;-67
2022/08/10 03:52:01;;;;;;;0.77;0.10;;;;;;;;;;4985792;28;20055;-68
2022/08/10 03:54:32;;;;;;;0.35;0.13;;;;;;;;;;4982864;28;20063;-68
2022/08/10 03:57:03;;;;;;;0.70;0.10;;;;;;;;;;4938664;28;20066;-68
2022/08/10 03:59:35;;;;;;;1.65;0.20;;;;;;;;;;4985664;28;20061;-68
2022/08/10 04:02:07;;;;;;;1.38;0.30;;;;;;;;;;4939279;28;20073;-68
2022/08/10 04:04:57;;;;;;;0.50;0.20;;;;;;;;;;5004989;28;20074;-69
2022/08/10 04:07:28;;;;;;;0.70;0.30;;;;;;;;;;4988621;28;20053;-68
2022/08/10 04:09:59;;;;;;;1.52;0.28;;;;;;;;;;4965741;28;20083;-68
2022/08/10 04:12:30;;;;;;;0.70;0.20;;;;;;;;;;4933501;28;20058;-68
2022/08/10 04:15:01;;;;;;;0.52;0.30;;;;;;;;;;4965961;28;20066;-68
2022/08/10 04:17:32;;;;;;;0.43;0.25;;;;;;;;;;4965844;28;20066;-68
2022/08/10 04:20:30;;;;;;;0.30;0.10;;;;;;;;;;4965657;28;20082;-70
2022/08/10 04:23:08;;;;;;;1.52;0.45;;;;;;;;;;4963969;28;20507;-72
2022/08/10 04:25:39;;;;;;;0.20;0.10;;;;;;;;;;4990244;28;20054;-72
2022/08/10 04:28:11;;;;;;;0.45;0.45;;;;;;;;;;4971956;28;20054;-72
2022/08/10 04:30:43;;;;;;;0.68;0.50;;;;;;;;;;4936970;29;20058;-71
2022/08/10 04:33:18;;;;;;;0.32;0.32;;;;;;;;;;4957168;28;20055;-72
2022/08/10 04:35:50;;;;;;;0.43;0.43;;;;;;;;;;4991171;28;20058;-72
2022/08/10 04:38:21;;;;;;;;;;;;;;;;;;4952924;28;20050;-71
2022/08/10 04:40:52;;;;;;;1.10;0.57;;;;;;;;;;4920643;29;19929;-70
2022/08/10 04:43:23;;;;;;;0.35;0.20;;;;;;;;;;4905315;28;20066;-69
2022/08/10 04:45:53;;;;;;;0.38;0.10;;;;;;;;;;4999708;28;20058;-71
2022/08/10 04:48:25;;;;;;;0.52;0.20;;;;;;;;;;5023175;28;20076;-70
2022/08/10 04:51:17;;;;;;;0.50;0.03;;;;;;;;;;5017140;28;20064;-71
2022/08/10 04:53:50;;;;;;;0.20;0.10;;;;;;;;;;5030387;28;20064;-71
2022/08/10 04:56:36;;;;;;;0.20;0.20;;;;;;;;;;4997420;28;20050;-71
2022/08/10 04:59:08;;;;;;;0.40;0.40;;;;;;;;;;4998176;28;20056;-71
2022/08/10 05:01:40;;;;;;;0.10;0.10;;;;;;;;;;4998045;28;20068;-71
2022/08/10 05:04:30;;;;;;;;;;;;;;;;;;4997539;28;20111;-70
2022/08/10 05:07:11;;;;;;;0.03;0.03;;;;;;;;;;5050509;28;20335;-70
2022/08/10 05:09:48;;;;;;;0.30;0.30;;;;;;;;;;5056766;28;20055;-71
2022/08/10 05:12:35;;;;;;;0.00;0.00;;;;;;;;;;5056356;28;20052;-72
2022/08/10 05:15:10;;;;;;;0.20;0.15;;;;;;;;;;5096287;27;20570;-72
2022/08/10 05:17:42;;;;;;;0.00;0.00;;;;;;;;;;5031901;27;20055;-73
2022/08/10 05:20:32;;;;;;;0.20;0.10;;;;;;;;;;5104020;27;20059;-72
2022/08/10 05:23:03;;;;;;;0.40;0.32;;;;;;;;;;5080872;27;20062;-71
2022/08/10 05:25:34;;;;;;;0.10;0.10;;;;;;;;;;5133315;27;20040;-70
2022/08/10 05:28:06;;;;;;;0.20;0.20;;;;;;;;;;5133536;27;20515;-71
2022/08/10 05:30:36;;;;;;;0.65;0.10;;;;;;;;;;5133659;27;20044;-71
2022/08/10 05:33:07;;;;;;;0.20;0.10;;;;;;;;;;5133480;27;20050;-73
2022/08/10 05:35:38;;;;;;;0.60;0.10;;;;;;;;;;5096107;27;20051;-71
2022/08/10 05:38:27;;;;;;;0.20;0.15;;;;;;;;;;5133195;27;20043;-72
2022/08/10 05:40:58;;;;;;;1.35;0.30;;;;;;;;;;5097573;27;20054;-71
2022/08/10 05:43:29;;;;;;;0.20;0.15;;;;;;;;;;5081552;27;20055;-69
2022/08/10 05:45:59;;;;;;;0.38;0.10;;;;;;;;;;5132823;27;20047;-69
2022/08/10 05:48:48;;;;;;;0.10;0.10;;;;;;;;;;5133037;27;20047;-69
2022/08/10 05:51:29;;;;;;;0.25;0.10;;;;;;;;;;5132938;27;20042;-70
2022/08/10 05:54:01;;;;;;;0.20;0.20;;;;;;;;;;5096899;27;20054;-70
2022/08/10 05:56:38;;;;;;;0.25;0.20;;;;;;;;;;5132660;27;20040;-70
2022/08/10 05:59:30;;;;;;;0.20;0.20;;;;;;;;;;5132696;27;20043;-69
2022/08/10 06:02:36;;;;;;;0.93;0.52;;;;;;;;;;5132660;27;20046;-73
2022/08/10 06:05:15;;;;;;;0.32;0.25;;;;;;;;;;5132601;27;20035;-72
2022/08/10 06:08:03;;;;;;;0.30;0.20;;;;;;;;;;5096493;27;20051;-70
2022/08/10 06:10:36;;;;;;;0.10;0.10;;;;;;;;;;5089166;28;20063;-71
2022/08/10 06:16:39;;;;;;;0.10;0.10;;;;;;;;;;5089108;28;20099;-69
2022/08/10 06:19:11;;;;;;;0.50;0.50;;;;;;;;;;5089108;28;20411;-69
2022/08/10 06:21:44;;;;;;;0.77;0.20;;;;;;;;;;5054947;28;20059;-69
2022/08/10 06:24:39;;;;;;;0.10;0.10;;;;;;;;;;5074620;28;20048;-67
2022/08/10 06:27:30;;;;;;;0.50;0.10;;;;;;;;;;5088887;28;20075;-69
2022/08/10 06:30:03;;;;;;;0.90;0.32;;;;;;;;;;5028158;28;20049;-69
2022/08/10 06:32:55;;;;;;;0.10;0.10;;;;;;;;;;5012012;28;20064;-70
2022/08/10 06:35:29;;;;;;;0.32;0.32;;;;;;;;;;4989055;28;20057;-70
2022/08/10 06:38:02;;;;;;;0.00;0.00;;;;;;;;;;4969618;28;20619;-69
2022/08/10 06:40:37;;;;;;;0.10;0.10;;;;;;;;;;4906611;28;20050;-69
2022/08/10 06:43:12;;;;;;;0.10;0.10;;;;;;;;;;4969698;28;20070;-68
2022/08/10 06:45:52;;;;;;;0.10;0.10;;;;;;;;;;4969727;28;20042;-72
2022/08/10 06:48:52;;;;;;;0.13;0.13;;;;;;;;;;4996131;28;20073;-72
2022/08/10 06:51:34;;;;;;;0.10;0.10;;;;;;;;;;4969396;28;20051;-73
2022/08/10 06:54:08;;;;;;;0.30;0.25;;;;;;;;;;4988466;28;20090;-73
2022/08/10 06:56:45;;;;;;;0.17;0.15;;;;;;;;;;4969465;28;20063;-72
2022/08/10 06:59:39;;;;;;;0.13;0.13;;;;;;;;;;4949899;28;20431;-73
2022/08/10 07:02:18;;;;;;;0.40;0.32;;;;;;;;;;4918158;28;20054;-74
2022/08/10 07:04:58;;;;;;;0.10;0.10;;;;;;;;;;4927182;29;20055;-72
2022/08/10 07:07:34;;;;;;;1.27;1.17;;;;;;;;;;4927493;28;20527;-72
2022/08/10 07:10:06;;;;;;;0.10;0.10;;;;;;;;;;4950018;28;20059;-71
2022/08/10 07:12:38;;;;;;;0.20;0.20;;;;;;;;;;4955649;28;20065;-71
2022/08/10 07:15:11;;;;;;;0.20;0.20;;;;;;;;;;4974932;28;20054;-71
2022/08/10 07:17:43;;;;;;;0.20;0.20;;;;;;;;;;4973229;28;20054;-71
2022/08/10 07:20:18;;;;;;;0.68;0.68;;;;;;;;;;4973317;28;20054;-71
2022/08/10 07:22:51;;;;;;;0.73;0.40;;;;;;;;;;4972351;28;20083;-72
2022/08/10 07:25:42;;;;;;;0.20;0.20;;;;;;;;;;4988514;28;20061;-72
2022/08/10 07:28:14;;;;;;;0.10;0.10;;;;;;;;;;4992084;28;20054;-72
2022/08/10 07:30:46;;;;;;;0.20;0.20;;;;;;;;;;4990017;28;20077;-72
2022/08/10 07:33:19;;;;;;;0.10;0.10;;;;;;;;;;4990078;28;20058;-73
2022/08/10 07:35:50;;;;;;;0.40;0.10;;;;;;;;;;5007832;28;20053;-74
2022/08/10 07:38:28;;;;;;;0.40;0.40;;;;;;;;;;5006982;28;20414;-72
2022/08/10 07:41:01;;;;;;;0.85;0.13;;;;;;;;;;5008096;28;20054;-71
2022/08/10 07:43:36;;;;;;;0.10;0.10;;;;;;;;;;5008174;28;20062;-71
2022/08/10 07:46:13;;;;;;;0.10;0.10;;;;;;;;;;4992364;28;20428;-72
2022/08/10 07:48:54;;;;;;;0.40;0.40;;;;;;;;;;5008249;28;20061;-73
2022/08/10 07:51:26;;;;;;;0.13;0.13;;;;;;;;;;5008106;28;20065;-73
2022/08/10 07:54:01;;;;;;;0.20;0.20;;;;;;;;;;5007894;28;20050;-72
2022/08/10 07:56:33;;;;;;;0.10;0.10;;;;;;;;;;5008147;28;20054;-69
2022/08/10 07:59:22;;;;;;;;;;;;;;;;;;5010819;28;20076;-72
2022/08/10 08:01:55;;;;;;;0.45;0.35;;;;;;;;;;4963151;28;20396;-68
2022/08/10 08:04:25;;;;;;;;;;;;;;;;;;5012192;28;20065;-69
2022/08/10 08:06:58;;;;;;;0.20;0.10;;;;;;;;;;4995938;28;19929;-72
2022/08/10 08:09:30;;;;;;;0.40;0.40;;;;;;;;;;5019872;28;20064;-72
2022/08/10 08:12:02;;;;;;;0.45;0.28;;;;;;;;;;5109750;28;20052;-72
2022/08/10 08:14:34;;;;;;;0.60;0.60;;;;;;;;;;5095172;28;20783;-71
2022/08/10 08:17:06;;;;;;;1.00;0.95;;;;;;;;;;5090117;28;20062;-70
2022/08/10 08:19:39;;;;;;;0.40;0.40;;;;;;;;;;5050808;28;20064;-70
2022/08/10 08:22:25;;;;;;;0.10;0.10;;;;;;;;;;5036800;28;20049;-69
2022/08/10 08:25:17;;;;;;;0.30;0.20;;;;;;;;;;5024006;28;20072;-70
2022/08/10 08:27:52;;;;;;;0.10;0.10;;;;;;;;;;5050730;28;20045;-70
2022/08/10 08:30:26;;;;;;;0.10;0.10;;;;;;;;;;5002965;28;20060;-69
2022/08/10 08:32:58;;;;;;;0.10;0.10;;;;;;;;;;4991352;28;20050;-70
2022/08/10 08:35:31;;;;;;;0.60;0.60;;;;;;;;;;4991458;28;20503;-70
2022/08/10 08:38:03;;;;;;;0.35;0.35;;;;;;;;;;4991389;28;20050;-70
2022/08/10 08:41:19;;;;;;;0.35;0.30;;;;;;;;;;4971541;28;20058;-72
2022/08/10 08:44:26;;;;;;;0.25;0.25;;;;;;;;;;4971805;28;20051;-71
2022/08/10 08:47:17;;;;;;;0.75;0.30;;;;;;;;;;4971886;28;20065;-71
2022/08/10 08:50:21;;;;;;;0.10;0.10;;;;;;;;;;4971748;28;20057;-71
2022/08/10 08:53:21;;;;;;;0.35;0.15;;;;;;;;;;4971521;28;20059;-69
2022/08/10 08:56:32;;;;;;;0.20;0.20;;;;;;;;;;5013745;28;20046;-70
2022/08/10 08:59:17;;;;;;;0.13;0.13;;;;;;;;;;5017271;28;20409;-71
2022/08/10 09:02:30;;;;;;;0.75;0.15;;;;;;;;;;5050165;28;20517;-72
2022/08/10 09:05:34;;;;;;;0.20;0.10;;;;;;;;;;5050162;28;20061;-71
2022/08/10 09:09:08;;;;;;;0.13;0.10;;;;;;;;;;5009981;28;20096;-71
2022/08/10 09:11:54;;;;;;;0.03;0.03;;;;;;;;;;4949314;28;20476;-73
2022/08/10 09:14:36;;;;;;;0.10;0.10;;;;;;;;;;4990492;28;20418;-72
2022/08/10 09:17:27;;;;;;;0.20;0.20;;;;;;;;;;4990370;28;20603;-72
2022/08/10 09:20:07;;;;;;;0.35;0.20;;;;;;;;;;4977254;28;20506;-69
2022/08/10 09:22:51;;;;;;;0.10;0.10;;;;;;;;;;4932253;29;20054;-69
2022/08/10 09:25:34;;;;;;;0.20;0.20;;;;;;;;;;4894900;29;20449;-69
2022/08/10 09:28:08;;;;;;;0.20;0.20;;;;;;;;;;4894242;29;20084;-69
2022/08/10 09:30:57;;;;;;;0.43;0.20;;;;;;;;;;4857278;29;20069;-69
2022/08/10 09:34:03;;;;;;;0.63;0.63;;;;;;;;;;4846077;29;20061;-68
2022/08/10 09:37:05;;;;;;;0.00;0.00;;;;;;;;;;4857262;29;20069;-69
2022/08/10 09:40:03;;;;;;;0.10;0.10;;;;;;;;;;4856814;29;20514;-67
2022/08/10 09:43:05;;;;;;;0.40;0.20;;;;;;;;;;4838449;29;20057;-69
2022/08/10 09:46:15;;;;;;;1.40;0.22;;;;;;;;;;4838759;29;20058;-68
2022/08/10 09:49:11;;;;;;;0.32;0.20;;;;;;;;;;4838422;29;20062;-68
2022/08/10 09:51:57;;;;;;;0.32;0.20;;;;;;;;;;4882503;29;20063;-67
2022/08/10 09:54:51;;;;;;;0.20;0.20;;;;;;;;;;4900641;29;20172;-66
2022/08/10 09:57:41;;;;;;;0.55;0.55;;;;;;;;;;4912851;29;20464;-67
2022/08/10 10:00:37;;;;;;;0.77;0.40;;;;;;;;;;4923546;29;20412;-68
2022/08/10 10:03:16;;;;;;;0.30;0.22;;;;;;;;;;4942968;29;20060;-69
2022/08/10 10:06:02;;;;;;;;;;;;;;;;;;4962299;28;20054;-67
2022/08/10 10:08:38;;;;;;;1.65;0.73;;;;;;;;;;4994338;28;20401;-68
2022/08/10 10:11:25;;;;;;;1.40;0.30;;;;;;;;;;4972890;28;20057;-67
2022/08/10 10:14:02;;;;;;;0.45;0.30;;;;;;;;;;4997143;28;20064;-67
2022/08/10 10:16:40;;;;;;;0.60;0.30;;;;;;;;;;4970134;28;20047;-67
2022/08/10 10:19:40;;;;;;;2.47;0.90;;;;;;;;;;4975101;28;20051;-67
2022/08/10 10:22:24;;;;;;;0.77;0.22;;;;;;;;;;4918636;29;20051;-67
2022/08/10 10:25:32;;;;;;;6.18;1.25;;;;;;;;;;4950867;28;20062;-67
2022/08/10 10:28:54;;;;;;;7.22;2.13;;;;;;;;;;4899707;29;20386;-68
2022/08/10 10:32:07;;;;;;;1.95;1.02;;;;;;;;;;4837946;29;20530;-68
2022/08/10 10:34:55;;;;;;;2.85;1.38;;;;;;;;;;4838117;29;20419;-69
2022/08/10 10:37:26;;;;;;;1.48;0.47;;;;;;;;;;4837653;29;20077;-68
2022/08/10 10:40:18;;;;;;;3.40;1.40;;;;;;;;;;4825656;29;20058;-69
2022/08/10 10:42:53;;;;;;;2.40;1.00;;;;;;;;;;4837853;29;20434;-69
2022/08/10 10:45:49;;;;;;;3.80;1.40;;;;;;;;;;4822708;29;20579;-68
2022/08/10 10:48:32;;;;;;;2.22;0.93;;;;;;;;;;4848423;29;20056;-69
2022/08/10 10:51:17;;;;;;;1.80;0.70;;;;;;;;;;4874696;29;20053;-68
2022/08/10 10:54:26;;;;;;;2.03;0.77;;;;;;;;;;4874836;29;20064;-68
2022/08/10 10:57:15;;;;;;;3.55;1.20;;;;;;;;;;4875146;29;20053;-68
2022/08/10 10:59:48;;;;;;;2.53;0.80;;;;;;;;;;4909928;29;20507;-68
2022/08/10 11:02:24;;;;;;;;;;;;;;;;;;4915405;29;20420;-70
2022/08/10 11:05:18;;;;;;;2.30;0.77;;;;;;;;;;4950062;29;19923;-69
2022/08/10 11:07:57;;;;;;;3.35;1.33;;;;;;;;;;4976092;28;20128;-68
2022/08/10 11:10:36;;;;;;;4.03;1.52;;;;;;;;;;5028189;28;20525;-68
2022/08/10 11:13:49;;;;;;;5.20;1.75;;;;;;;;;;5000145;28;20053;-69
2022/08/10 11:16:58;;;;;;;4.65;1.65;;;;;;;;;;5048200;28;20056;-68
2022/08/10 11:19:51;;;;;;;5.47;2.95;;;;;;;;;;5048085;28;20064;-67
2022/08/10 11:22:59;;;;;;;7.57;2.42;;;;;;;;;;4940444;28;20047;-68
2022/08/10 11:25:31;;;;;;;6.13;2.70;;;;;;;;;;4988844;28;20058;-68
2022/08/10 11:28:21;;;;;;;4.88;2.40;;;;;;;;;;4940558;28;20666;-68
2022/08/10 11:30:58;;;;;;;4.43;2.05;;;;;;;;;;4972598;28;20518;-68
2022/08/10 11:33:47;;;;;;;3.55;1.58;;;;;;;;;;4989744;28;20054;-68
2022/08/10 11:36:40;;;;;;;2.92;1.30;;;;;;;;;;4979404;28;20054;-69
2022/08/10 11:39:20;;;;;;;1.90;0.80;;;;;;;;;;4992667;28;20143;-67
2022/08/10 11:41:55;;;;;;;2.33;1.15;;;;;;;;;;5004474;28;20056;-68
2022/08/10 11:44:56;;;;;;;2.55;1.27;;;;;;;;;;5041446;28;20052;-69
2022/08/10 11:47:32;;;;;;;1.55;0.80;;;;;;;;;;5038610;28;20048;-68
2022/08/10 11:50:25;;;;;;;3.13;1.15;;;;;;;;;;5071595;28;20080;-70
2022/08/10 11:53:07;;;;;;;0.30;0.25;;;;;;;;;;5071534;28;20052;-68
2022/08/10 11:55:39;;;;;;;2.95;1.95;;;;;;;;;;5071736;28;20067;-69
2022/08/10 12:01:07;;;;;;;1.40;0.98;;;;;;;;;;5050580;28;20044;-68
2022/08/10 12:03:40;;;;;;;1.83;0.82;;;;;;;;;;5091917;28;20063;-68
2022/08/10 12:06:16;;;;;;;0.38;0.20;;;;;;;;;;5091729;28;20044;-69
2022/08/10 12:09:07;;;;;;;1.17;0.65;;;;;;;;;;5091613;28;20558;-69
2022/08/10 12:11:59;;;;;;;1.05;0.30;;;;;;;;;;5077658;28;20541;-70
2022/08/10 12:14:45;;;;;;;0.70;0.32;;;;;;;;;;5074802;28;20431;-70
2022/08/10 12:17:28;;;;;;;0.30;0.15;;;;;;;;;;5041457;28;20055;-69
2022/08/10 12:20:14;;;;;;;1.35;0.40;;;;;;;;;;5091160;28;20048;-70
2022/08/10 12:22:54;;;;;;;0.50;0.20;;;;;;;;;;5050653;28;20045;-71
2022/08/10 12:25:49;;;;;;;1.08;0.47;;;;;;;;;;5050904;28;20057;-69
2022/08/10 12:28:39;;;;;;;0.52;0.32;;;;;;;;;;5050793;28;20564;-68
2022/08/10 12:32:05;;;;;;;0.95;0.35;;;;;;;;;;5050946;28;20045;-68
2022/08/10 12:34:39;;;;;;;0.50;0.20;;;;;;;;;;4991765;28;20062;-68
2022/08/10 12:37:34;;;;;;;0.57;0.30;;;;;;;;;;4994844;28;20046;-69
2022/08/10 12:40:42;;;;;;;0.77;0.40;;;;;;;;;;5010924;28;20061;-71
2022/08/10 12:43:12;;;;;;;1.35;0.30;;;;;;;;;;4952350;29;20063;-70
2022/08/10 12:46:24;;;;;;;1.13;0.45;;;;;;;;;;4971706;28;20066;-69
2022/08/10 12:49:25;;;;;;;0.60;0.30;;;;;;;;;;4971418;28;20055;-69
2022/08/10 12:52:17;;;;;;;1.55;0.52;;;;;;;;;;4971540;28;20070;-69
2022/08/10 12:54:51;;;;;;;1.98;0.57;;;;;;;;;;4971639;28;20059;-69
2022/08/10 12:57:24;;;;;;;0.77;0.30;;;;;;;;;;4939297;28;20055;-68
2022/08/10 13:00:00;;;;;;;2.38;1.02;;;;;;;;;;4976988;28;20066;-68
2022/08/10 13:02:43;;;;;;;2.05;0.70;;;;;;;;;;4991161;28;20057;-69
2022/08/10 13:05:17;;;;;;;1.95;0.77;;;;;;;;;;4943760;28;20077;-68
2022/08/10 13:09:07;;;;;;;4.65;1.08;;;;;;;;;;4990917;28;20061;-67
2022/08/10 13:11:04;;;;;;;0.90;0.57;;;;;;;;;;4983000;28;20055;-69
2022/08/10 13:14:01;;;;;;;2.20;1.10;;;;;;;;;;4946371;28;20054;-66
2022/08/10 13:16:32;;;;;;;2.30;1.08;;;;;;;;;;4971449;28;20054;-67
2022/08/10 13:19:03;;;;;;;0.57;0.40;;;;;;;;;;4981763;28;20165;-67
2022/08/10 13:21:37;;;;;;;2.05;0.30;;;;;;;;;;5070105;28;20075;-67
2022/08/10 13:24:12;;;;;;;1.52;0.73;;;;;;;;;;5019843;28;20052;-67
2022/08/10 13:26:56;;;;;;;1.55;0.55;;;;;;;;;;5063935;27;20062;-67
2022/08/10 13:29:55;;;;;;;1.15;0.52;;;;;;;;;;5133369;27;20036;-69
2022/08/10 13:32:34;;;;;;;1.30;0.70;;;;;;;;;;5097090;27;20062;-68
2022/08/10 13:35:11;;;;;;;2.60;1.17;;;;;;;;;;5133272;27;20050;-68
2022/08/10 13:37:47;;;;;;;2.72;1.65;;;;;;;;;;5133248;27;20470;-68
2022/08/10 13:40:19;;;;;;;3.10;0.85;;;;;;;;;;5133338;27;20367;-68
2022/08/10 13:42:54;;;;;;;3.28;1.58;;;;;;;;;;5133404;27;20039;-67
2022/08/10 13:45:26;;;;;;;3.03;1.80;;;;;;;;;;5049159;27;20395;-68
2022/08/10 13:48:12;;;;;;;1.23;0.47;;;;;;;;;;5096901;27;20055;-66
2022/08/10 13:50:45;;;;;;;2.03;1.00;;;;;;;;;;5096581;27;20055;-68
2022/08/10 13:53:18;;;;;;;1.63;0.70;;;;;;;;;;5133105;27;20039;-67
2022/08/10 13:55:55;;;;;;;2.03;0.40;;;;;;;;;;5131742;27;20395;-67
2022/08/10 13:58:40;;;;;;;1.15;0.50;;;;;;;;;;5089231;28;20044;-67
2022/08/10 14:01:14;;;;;;;0.98;0.40;;;;;;;;;;5068977;28;20052;-68
2022/08/10 14:03:46;;;;;;;1.02;0.50;;;;;;;;;;5069183;28;20067;-69
2022/08/10 14:06:18;;;;;;;;;;;;;;;;;;5049350;28;20049;-70
2022/08/10 14:08:54;;;;;;;1.10;0.30;;;;;;;;;;5049168;28;19921;-69
2022/08/10 14:11:27;;;;;;;1.92;0.30;;;;;;;;;;5048849;28;20120;-69
2022/08/10 14:14:13;;;;;;;0.77;0.38;;;;;;;;;;5009063;28;20049;-68
2022/08/10 14:16:45;;;;;;;1.08;0.50;;;;;;;;;;5009394;28;20046;-69
2022/08/10 14:19:30;;;;;;;1.13;0.47;;;;;;;;;;5009177;28;20058;-69
2022/08/10 14:22:01;;;;;;;0.85;0.40;;;;;;;;;;4976700;28;20050;-69
2022/08/10 14:24:33;;;;;;;2.92;0.90;;;;;;;;;;4989179;28;20550;-69
2022/08/10 14:27:09;;;;;;;1.30;0.55;;;;;;;;;;4989456;28;20533;-68
2022/08/10 14:29:46;;;;;;;1.20;0.40;;;;;;;;;;4967539;28;20073;-70
2022/08/10 14:32:20;;;;;;;0.70;0.70;;;;;;;;;;4992540;28;20058;-66
2022/08/10 14:34:53;;;;;;;0.55;0.30;;;;;;;;;;4975984;28;20093;-69
2022/08/10 14:38:09;;;;;;;1.52;0.80;;;;;;;;;;5008728;28;20053;-67
2022/08/10 14:40:43;;;;;;;1.67;1.05;;;;;;;;;;4989397;28;20513;-66
2022/08/10 14:43:26;;;;;;;2.03;1.02;;;;;;;;;;4989251;28;20061;-68
2022/08/10 14:46:05;;;;;;;0.55;0.55;;;;;;;;;;4988902;28;20058;-68
2022/08/10 14:48:45;;;;;;;4.18;0.68;;;;;;;;;;4941009;28;20080;-69
2022/08/10 14:51:24;;;;;;;1.73;0.50;;;;;;;;;;4987517;28;20321;-68
2022/08/10 14:54:15;;;;;;;3.50;1.30;;;;;;;;;;5014567;28;20080;-69
2022/08/10 14:56:47;;;;;;;4.70;1.83;;;;;;;;;;5027974;28;20506;-68
2022/08/10 14:59:19;;;;;;;3.42;1.35;;;;;;;;;;4979459;28;20053;-70
2022/08/10 15:01:58;;;;;;;1.83;0.70;;;;;;;;;;5028005;28;20057;-68
2022/08/10 15:04:52;;;;;;;1.92;0.70;;;;;;;;;;4988500;28;20415;-68
2022/08/10 15:07:28;;;;;;;1.08;0.50;;;;;;;;;;4969096;28;20578;-68
2022/08/10 15:10:00;;;;;;;0.77;0.38;;;;;;;;;;4969137;28;20059;-68
2022/08/10 15:12:35;;;;;;;1.27;0.90;;;;;;;;;;4969180;28;20066;-68
2022/08/10 15:15:11;;;;;;;1.23;0.60;;;;;;;;;;4969453;28;20081;-68
2022/08/10 15:17:58;;;;;;;3.80;1.02;;;;;;;;;;4975082;28;20057;-68
2022/08/10 15:20:32;;;;;;;1.52;1.00;;;;;;;;;;4973115;28;20057;-68
2022/08/10 15:23:08;;;;;;;1.45;0.70;;;;;;;;;;4969708;28;20493;-68
2022/08/10 15:26:02;;;;;;;1.05;0.50;;;;;;;;;;5021528;28;20064;-69
2022/08/10 15:28:48;;;;;;;2.00;1.00;;;;;;;;;;5027929;28;20057;-69
2022/08/10 15:37:23;;;;;;;2.63;0.85;;;;;;;;;;5027327;28;20056;-73
2022/08/10 15:40:18;;;;;;;3.33;1.40;;;;;;;;;;5028069;28;20069;-73
2022/08/10 15:43:04;;;;;;;11.23;6.35;;;;;;;;;;5008913;28;20523;-71
2022/08/10 15:45:58;;;;;;;5.93;3.25;;;;;;;;;;5047649;28;20053;-72
2022/08/10 15:48:48;;;;;;;2.80;1.10;;;;;;;;;;5047563;28;20063;-71
2022/08/10 15:51:27;;;;;;;0.80;0.40;;;;;;;;;;5047999;28;20182;-70
2022/08/10 15:54:20;;;;;;;1.80;0.63;;;;;;;;;;5007821;28;20442;-73
2022/08/10 15:57:08;;;;;;;4.65;1.90;;;;;;;;;;4968526;28;20095;-73
2022/08/10 16:00:09;;;;;;;1.45;0.70;;;;;;;;;;4917460;29;20096;-73
2022/08/10 16:02:57;;;;;;;1.50;0.80;;;;;;;;;;4892444;29;20065;-72
2022/08/10 16:05:41;;;;;;;5.55;3.20;;;;;;;;;;4877505;29;20529;-69
2022/08/10 16:08:49;;;;;;;1.00;0.50;;;;;;;;;;4855220;29;20053;-69
2022/08/10 16:11:46;;;;;;;1.95;1.05;;;;;;;;;;4855234;29;20081;-71
2022/08/10 16:14:21;;;;;;;1.17;0.40;;;;;;;;;;4858992;29;20065;-68
2022/08/10 16:16:56;;;;;;;1.92;1.10;;;;;;;;;;4836810;29;20054;-67
2022/08/10 16:19:28;;;;;;;0.57;0.30;;;;;;;;;;4837413;29;20492;-67
2022/08/10 16:22:07;;;;;;;1.85;1.17;;;;;;;;;;4840506;29;20407;-68
2022/08/10 16:24:59;;;;;;;1.88;0.70;;;;;;;;;;4840588;29;20073;-69
2022/08/10 16:27:33;;;;;;;1.77;1.02;;;;;;;;;;4840062;29;20062;-69